createdAt,value
2018-11-14T00:46:16.673Z,7.5
2018-11-14T00:58:20.370Z,7.2
2018-11-14T01:19:22.740Z,7.0
2018-11-14T01:29:36.452Z,7.0
2018-11-14T01:39:50.539Z,7.0
2018-11-14T01:50:04.716Z,6.9
2018-11-14T02:00:19.012Z,6.8
2018-11-14T02:10:33.390Z,6.8
2018-11-14T02:20:47.402Z,6.7
2018-11-14T02:31:01.412Z,6.6
2018-11-14T02:41:12.805Z,6.5
2018-11-14T02:51:24.134Z,6.5
2018-11-14T03:01:38.093Z,6.4
2018-11-14T03:12:05.781Z,6.4
2018-11-14T03:22:18.218Z,6.3
2018-11-14T03:32:32.205Z,6.3
2018-11-14T03:42:46.194Z,6.2
2018-11-14T03:52:59.738Z,6.2
2018-11-14T04:05:29.675Z,6.0
2018-11-14T04:28:32.140Z,6.0
2018-11-14T04:52:19.756Z,5.9
2018-11-14T05:02:33.426Z,5.8
2018-11-14T05:43:41.770Z,5.7
2018-11-14T05:54:01.827Z,5.6
2018-11-14T06:04:52.129Z,5.5
2018-11-14T06:15:47.062Z,5.5
2018-11-14T06:39:37.414Z,5.4
2018-11-14T06:50:33.185Z,5.3
2018-11-14T07:16:35.953Z,5.2
2018-11-14T07:27:26.285Z,5.0
2018-11-14T07:38:57.249Z,5.1
2018-11-14T07:49:13.412Z,5.1
2018-11-14T08:26:01.233Z,7.9
2018-11-14T08:36:51.085Z,8.0
2018-11-14T08:47:38.327Z,8.0
2018-11-14T08:57:52.359Z,8.0
2018-11-14T09:22:09.631Z,8.2
2018-11-14T09:33:23.649Z,8.2
2018-11-14T09:45:03.985Z,8.6
2018-11-14T09:57:09.857Z,8.8
2018-11-14T10:18:53.462Z,9.0
2018-11-14T10:30:20.630Z,9.5
2018-11-14T10:42:28.809Z,9.5
2018-11-14T10:52:44.134Z,10.0
2018-11-14T11:06:07.093Z,12.7
2018-11-14T11:16:53.227Z,14.8
2018-11-14T11:27:07.313Z,14.8
2018-11-14T11:41:43.579Z,17.2
2018-11-14T11:51:58.607Z,17.2
2018-11-14T12:03:01.201Z,19.1
2018-11-14T12:14:57.508Z,19.1
2018-11-14T12:28:26.657Z,20.2
2018-11-14T12:38:37.988Z,20.2
2018-11-14T12:48:50.189Z,20.5
2018-11-14T13:01:05.311Z,20.5
2018-11-14T13:11:19.556Z,20.5
2018-11-14T13:21:35.068Z,20.4
2018-11-14T13:31:49.933Z,20.3
2018-11-14T13:42:05.195Z,20.2
2018-11-14T13:56:02.745Z,19.7
2018-11-14T14:06:17.700Z,19.7
2018-11-14T14:16:37.388Z,19.3
2018-11-14T14:27:24.536Z,18.6
2018-11-14T14:37:39.110Z,18.6
2018-11-14T14:47:52.131Z,18.2
2018-11-14T14:58:38.792Z,17.5
2018-11-14T15:08:54.032Z,17.5
2018-11-14T15:19:10.215Z,16.9
2018-11-14T15:29:34.421Z,16.3
2018-11-14T15:39:47.074Z,15.7
2018-11-14T15:50:33.637Z,14.5
2018-11-14T16:00:49.911Z,14.5
2018-11-14T16:11:05.283Z,13.9
2018-11-14T16:38:44.516Z,12.1
2018-11-14T16:49:31.122Z,11.6
2018-11-14T16:59:46.375Z,11.5
2018-11-14T17:10:01.495Z,11.1
2018-11-14T17:20:48.135Z,10.2
2018-11-14T17:31:03.537Z,10.2
2018-11-14T17:41:19.152Z,9.8
2018-11-14T17:51:30.707Z,9.5
2018-11-14T18:01:45.694Z,9.2
2018-11-14T18:11:59.510Z,8.9
2018-11-14T18:22:15.174Z,8.6
2018-11-14T18:43:30.465Z,8.1
2018-11-14T18:56:34.588Z,7.6
2018-11-14T20:01:49.026Z,6.4
2018-11-14T20:12:53.211Z,6.2
2018-11-14T20:23:56.371Z,6.0
2018-11-14T20:35:52.105Z,5.8
2018-11-14T21:20:02.756Z,5.3
2018-11-14T21:44:34.641Z,5.0
2018-11-14T21:55:37.590Z,4.8
2018-11-14T22:38:09.326Z,4.3
2018-11-14T22:48:27.323Z,4.3
2018-11-14T22:58:43.338Z,4.1
2018-11-14T23:08:59.736Z,4.0
2018-11-14T23:19:15.921Z,4.0
2018-11-14T23:29:31.833Z,3.9
2018-11-14T23:39:48.098Z,3.8
2018-11-14T23:50:36.628Z,3.7
